sensor_id;sensor_type;location;lat;lon;timestamp;P1;durP1;ratioP1;P2;durP2;ratioP2
77099;SDS011;66602;48.922;2.414;2023-04-15T00:00:53;5.65;;;5.22;;
77099;SDS011;66602;48.922;2.414;2023-04-15T00:03:19;5.40;;;5.00;;
77099;SDS011;66602;48.922;2.414;2023-04-15T00:05:44;5.65;;;5.25;;
77099;SDS011;66602;48.922;2.414;2023-04-15T00:08:10;5.63;;;4.95;;
77099;SDS011;66602;48.922;2.414;2023-04-15T00:10:36;5.72;;;5.43;;
77099;SDS011;66602;48.922;2.414;2023-04-15T00:13:02;6.10;;;5.63;;
77099;SDS011;66602;48.922;2.414;2023-04-15T00:15:28;5.68;;;5.32;;
77099;SDS011;66602;48.922;2.414;2023-04-15T00:17:53;7.18;;;5.80;;
77099;SDS011;66602;48.922;2.414;2023-04-15T00:20:19;6.22;;;5.70;;
77099;SDS011;66602;48.922;2.414;2023-04-15T00:22:45;5.53;;;4.97;;
77099;SDS011;66602;48.922;2.414;2023-04-15T00:25:11;6.00;;;5.60;;
77099;SDS011;66602;48.922;2.414;2023-04-15T00:27:37;6.28;;;5.43;;
77099;SDS011;66602;48.922;2.414;2023-04-15T00:30:02;6.10;;;5.70;;
77099;SDS011;66602;48.922;2.414;2023-04-15T00:32:29;6.30;;;5.70;;
77099;SDS011;66602;48.922;2.414;2023-04-15T00:34:55;8.25;;;6.55;;
77099;SDS011;66602;48.922;2.414;2023-04-15T00:37:20;9.18;;;5.75;;
77099;SDS011;66602;48.922;2.414;2023-04-15T00:39:46;6.20;;;5.60;;
77099;SDS011;66602;48.922;2.414;2023-04-15T00:42:11;6.10;;;5.50;;
77099;SDS011;66602;48.922;2.414;2023-04-15T00:44:37;7.07;;;6.18;;
77099;SDS011;66602;48.922;2.414;2023-04-15T00:47:02;6.47;;;5.75;;
77099;SDS011;66602;48.922;2.414;2023-04-15T00:49:28;6.00;;;5.35;;
77099;SDS011;66602;48.922;2.414;2023-04-15T00:51:54;6.07;;;5.75;;
77099;SDS011;66602;48.922;2.414;2023-04-15T00:54:20;10.50;;;6.03;;
77099;SDS011;66602;48.922;2.414;2023-04-15T00:56:46;7.35;;;5.82;;
77099;SDS011;66602;48.922;2.414;2023-04-15T00:59:12;6.00;;;5.60;;
77099;SDS011;66602;48.922;2.414;2023-04-15T01:01:39;5.93;;;5.43;;
77099;SDS011;66602;48.922;2.414;2023-04-15T01:04:04;5.78;;;5.47;;
77099;SDS011;66602;48.922;2.414;2023-04-15T01:06:31;5.93;;;5.35;;
77099;SDS011;66602;48.922;2.414;2023-04-15T01:08:57;7.72;;;6.90;;
77099;SDS011;66602;48.922;2.414;2023-04-15T01:11:23;7.10;;;6.45;;
77099;SDS011;66602;48.922;2.414;2023-04-15T01:13:49;7.30;;;6.32;;
77099;SDS011;66602;48.922;2.414;2023-04-15T01:16:16;7.90;;;7.15;;
77099;SDS011;66602;48.922;2.414;2023-04-15T01:18:43;8.00;;;7.50;;
77099;SDS011;66602;48.922;2.414;2023-04-15T01:21:09;7.85;;;7.25;;
77099;SDS011;66602;48.922;2.414;2023-04-15T01:23:35;9.02;;;7.57;;
77099;SDS011;66602;48.922;2.414;2023-04-15T01:26:05;8.30;;;7.60;;
77099;SDS011;66602;48.922;2.414;2023-04-15T01:28:32;8.68;;;7.93;;
77099;SDS011;66602;48.922;2.414;2023-04-15T01:31:06;8.48;;;7.80;;
77099;SDS011;66602;48.922;2.414;2023-04-15T01:33:32;9.60;;;8.53;;
77099;SDS011;66602;48.922;2.414;2023-04-15T01:35:57;10.13;;;9.15;;
77099;SDS011;66602;48.922;2.414;2023-04-15T01:38:23;8.88;;;8.13;;
77099;SDS011;66602;48.922;2.414;2023-04-15T01:40:49;10.70;;;8.85;;
77099;SDS011;66602;48.922;2.414;2023-04-15T01:43:15;10.13;;;9.13;;
77099;SDS011;66602;48.922;2.414;2023-04-15T01:45:40;10.55;;;9.77;;
77099;SDS011;66602;48.922;2.414;2023-04-15T01:48:06;10.13;;;9.43;;
77099;SDS011;66602;48.922;2.414;2023-04-15T01:50:32;10.40;;;8.82;;
77099;SDS011;66602;48.922;2.414;2023-04-15T01:52:58;10.18;;;9.48;;
77099;SDS011;66602;48.922;2.414;2023-04-15T01:55:23;9.93;;;9.05;;
77099;SDS011;66602;48.922;2.414;2023-04-15T01:57:49;10.20;;;9.50;;
77099;SDS011;66602;48.922;2.414;2023-04-15T02:00:14;10.43;;;9.65;;
77099;SDS011;66602;48.922;2.414;2023-04-15T02:02:41;11.25;;;10.15;;
77099;SDS011;66602;48.922;2.414;2023-04-15T02:05:07;12.00;;;9.60;;
77099;SDS011;66602;48.922;2.414;2023-04-15T02:07:33;8.73;;;8.23;;
77099;SDS011;66602;48.922;2.414;2023-04-15T02:09:59;9.60;;;8.65;;
77099;SDS011;66602;48.922;2.414;2023-04-15T02:12:24;9.63;;;8.43;;
77099;SDS011;66602;48.922;2.414;2023-04-15T02:14:50;8.18;;;7.57;;
77099;SDS011;66602;48.922;2.414;2023-04-15T02:17:15;8.10;;;7.55;;
77099;SDS011;66602;48.922;2.414;2023-04-15T02:19:41;7.57;;;7.00;;
77099;SDS011;66602;48.922;2.414;2023-04-15T02:22:07;7.18;;;6.68;;
77099;SDS011;66602;48.922;2.414;2023-04-15T02:24:33;7.60;;;7.07;;
77099;SDS011;66602;48.922;2.414;2023-04-15T02:26:59;6.57;;;6.05;;
77099;SDS011;66602;48.922;2.414;2023-04-15T02:29:25;6.22;;;5.68;;
77099;SDS011;66602;48.922;2.414;2023-04-15T02:31:51;6.47;;;5.85;;
77099;SDS011;66602;48.922;2.414;2023-04-15T02:34:16;6.45;;;6.05;;
77099;SDS011;66602;48.922;2.414;2023-04-15T02:36:42;7.38;;;6.88;;
77099;SDS011;66602;48.922;2.414;2023-04-15T02:39:07;5.60;;;5.20;;
77099;SDS011;66602;48.922;2.414;2023-04-15T02:41:33;7.15;;;6.55;;
77099;SDS011;66602;48.922;2.414;2023-04-15T02:43:59;8.10;;;7.40;;
77099;SDS011;66602;48.922;2.414;2023-04-15T02:46:25;8.00;;;7.50;;
77099;SDS011;66602;48.922;2.414;2023-04-15T02:48:51;8.93;;;8.13;;
77099;SDS011;66602;48.922;2.414;2023-04-15T02:51:18;10.90;;;9.13;;
77099;SDS011;66602;48.922;2.414;2023-04-15T02:53:46;17.23;;;12.80;;
77099;SDS011;66602;48.922;2.414;2023-04-15T02:56:13;32.03;;;16.75;;
77099;SDS011;66602;48.922;2.414;2023-04-15T02:58:43;27.85;;;15.52;;
77099;SDS011;66602;48.922;2.414;2023-04-15T03:01:09;25.92;;;15.18;;
77099;SDS011;66602;48.922;2.414;2023-04-15T03:03:35;29.73;;;16.10;;
77099;SDS011;66602;48.922;2.414;2023-04-15T03:06:01;31.15;;;15.15;;
77099;SDS011;66602;48.922;2.414;2023-04-15T03:08:26;22.95;;;14.40;;
77099;SDS011;66602;48.922;2.414;2023-04-15T03:10:52;30.10;;;14.77;;
77099;SDS011;66602;48.922;2.414;2023-04-15T03:13:18;18.92;;;13.30;;
77099;SDS011;66602;48.922;2.414;2023-04-15T03:15:45;21.25;;;13.32;;
77099;SDS011;66602;48.922;2.414;2023-04-15T03:18:11;15.63;;;12.13;;
77099;SDS011;66602;48.922;2.414;2023-04-15T03:20:37;13.07;;;11.73;;
77099;SDS011;66602;48.922;2.414;2023-04-15T03:23:02;12.77;;;9.82;;
77099;SDS011;66602;48.922;2.414;2023-04-15T03:25:28;10.68;;;9.73;;
77099;SDS011;66602;48.922;2.414;2023-04-15T03:27:53;9.93;;;9.00;;
77099;SDS011;66602;48.922;2.414;2023-04-15T03:30:19;10.98;;;10.02;;
77099;SDS011;66602;48.922;2.414;2023-04-15T03:32:46;12.80;;;10.57;;
77099;SDS011;66602;48.922;2.414;2023-04-15T03:35:11;13.20;;;11.25;;
77099;SDS011;66602;48.922;2.414;2023-04-15T03:37:37;18.90;;;11.48;;
77099;SDS011;66602;48.922;2.414;2023-04-15T03:40:02;11.68;;;10.60;;
77099;SDS011;66602;48.922;2.414;2023-04-15T03:42:30;11.10;;;10.00;;
77099;SDS011;66602;48.922;2.414;2023-04-15T03:44:56;13.75;;;11.48;;
77099;SDS011;66602;48.922;2.414;2023-04-15T03:47:21;13.75;;;12.27;;
77099;SDS011;66602;48.922;2.414;2023-04-15T03:49:47;19.20;;;14.02;;
77099;SDS011;66602;48.922;2.414;2023-04-15T03:52:12;16.83;;;13.43;;
77099;SDS011;66602;48.922;2.414;2023-04-15T03:54:38;20.02;;;14.27;;
77099;SDS011;66602;48.922;2.414;2023-04-15T03:57:04;17.42;;;14.20;;
77099;SDS011;66602;48.922;2.414;2023-04-15T03:59:31;20.70;;;15.10;;
77099;SDS011;66602;48.922;2.414;2023-04-15T04:01:57;16.75;;;12.95;;
77099;SDS011;66602;48.922;2.414;2023-04-15T04:04:22;16.00;;;12.32;;
77099;SDS011;66602;48.922;2.414;2023-04-15T04:06:48;12.80;;;11.50;;
77099;SDS011;66602;48.922;2.414;2023-04-15T04:09:15;11.55;;;9.45;;
77099;SDS011;66602;48.922;2.414;2023-04-15T04:11:41;8.57;;;7.82;;
77099;SDS011;66602;48.922;2.414;2023-04-15T04:14:06;8.40;;;7.70;;
77099;SDS011;66602;48.922;2.414;2023-04-15T04:16:32;7.28;;;6.65;;
77099;SDS011;66602;48.922;2.414;2023-04-15T04:18:57;6.97;;;6.40;;
77099;SDS011;66602;48.922;2.414;2023-04-15T04:21:23;6.50;;;5.90;;
77099;SDS011;66602;48.922;2.414;2023-04-15T04:23:48;6.55;;;6.15;;
77099;SDS011;66602;48.922;2.414;2023-04-15T04:26:14;7.07;;;6.32;;
77099;SDS011;66602;48.922;2.414;2023-04-15T04:28:40;6.88;;;6.47;;
77099;SDS011;66602;48.922;2.414;2023-04-15T04:31:06;6.28;;;5.88;;
77099;SDS011;66602;48.922;2.414;2023-04-15T04:33:32;6.78;;;6.38;;
77099;SDS011;66602;48.922;2.414;2023-04-15T04:35:58;7.03;;;6.43;;
77099;SDS011;66602;48.922;2.414;2023-04-15T04:38:23;6.95;;;6.40;;
77099;SDS011;66602;48.922;2.414;2023-04-15T04:40:49;7.05;;;6.20;;
77099;SDS011;66602;48.922;2.414;2023-04-15T04:43:15;7.38;;;6.88;;
77099;SDS011;66602;48.922;2.414;2023-04-15T04:45:41;7.05;;;6.47;;
77099;SDS011;66602;48.922;2.414;2023-04-15T04:48:23;7.55;;;6.97;;
77099;SDS011;66602;48.922;2.414;2023-04-15T04:50:49;6.43;;;5.82;;
77099;SDS011;66602;48.922;2.414;2023-04-15T04:53:15;7.32;;;6.65;;
77099;SDS011;66602;48.922;2.414;2023-04-15T04:55:42;8.23;;;7.43;;
77099;SDS011;66602;48.922;2.414;2023-04-15T04:58:07;8.13;;;7.38;;
77099;SDS011;66602;48.922;2.414;2023-04-15T05:00:33;7.00;;;6.50;;
77099;SDS011;66602;48.922;2.414;2023-04-15T05:02:58;6.63;;;6.13;;
77099;SDS011;66602;48.922;2.414;2023-04-15T05:05:24;7.03;;;6.53;;
77099;SDS011;66602;48.922;2.414;2023-04-15T05:07:50;6.47;;;5.97;;
77099;SDS011;66602;48.922;2.414;2023-04-15T05:10:16;7.35;;;5.88;;
77099;SDS011;66602;48.922;2.414;2023-04-15T05:12:42;8.07;;;6.18;;
77099;SDS011;66602;48.922;2.414;2023-04-15T05:15:08;6.70;;;6.18;;
77099;SDS011;66602;48.922;2.414;2023-04-15T05:17:44;7.15;;;6.18;;
77099;SDS011;66602;48.922;2.414;2023-04-15T05:20:10;7.10;;;6.50;;
77099;SDS011;66602;48.922;2.414;2023-04-15T05:22:36;6.10;;;5.55;;
77099;SDS011;66602;48.922;2.414;2023-04-15T05:25:02;6.63;;;6.07;;
77099;SDS011;66602;48.922;2.414;2023-04-15T05:27:27;5.90;;;5.40;;
77099;SDS011;66602;48.922;2.414;2023-04-15T05:29:53;6.03;;;5.63;;
77099;SDS011;66602;48.922;2.414;2023-04-15T05:32:18;6.45;;;5.85;;
77099;SDS011;66602;48.922;2.414;2023-04-15T05:34:46;6.68;;;6.22;;
77099;SDS011;66602;48.922;2.414;2023-04-15T05:37:11;5.75;;;5.35;;
77099;SDS011;66602;48.922;2.414;2023-04-15T05:39:38;5.45;;;5.15;;
77099;SDS011;66602;48.922;2.414;2023-04-15T05:42:05;5.03;;;4.55;;
77099;SDS011;66602;48.922;2.414;2023-04-15T05:44:31;5.20;;;4.90;;
77099;SDS011;66602;48.922;2.414;2023-04-15T05:46:57;4.68;;;4.38;;
77099;SDS011;66602;48.922;2.414;2023-04-15T05:49:24;5.30;;;4.82;;
77099;SDS011;66602;48.922;2.414;2023-04-15T05:51:49;5.85;;;5.35;;
77099;SDS011;66602;48.922;2.414;2023-04-15T05:54:15;4.82;;;4.53;;
77099;SDS011;66602;48.922;2.414;2023-04-15T05:56:41;4.57;;;4.22;;
77099;SDS011;66602;48.922;2.414;2023-04-15T05:59:06;4.85;;;4.45;;
77099;SDS011;66602;48.922;2.414;2023-04-15T06:01:32;4.55;;;4.32;;
77099;SDS011;66602;48.922;2.414;2023-04-15T06:03:58;4.47;;;4.18;;
77099;SDS011;66602;48.922;2.414;2023-04-15T06:06:24;5.10;;;4.70;;
77099;SDS011;66602;48.922;2.414;2023-04-15T06:08:51;5.22;;;4.93;;
77099;SDS011;66602;48.922;2.414;2023-04-15T06:11:17;4.78;;;4.40;;
77099;SDS011;66602;48.922;2.414;2023-04-15T06:13:42;6.35;;;4.50;;
77099;SDS011;66602;48.922;2.414;2023-04-15T06:16:08;5.30;;;4.90;;
77099;SDS011;66602;48.922;2.414;2023-04-15T06:18:33;6.78;;;5.13;;
77099;SDS011;66602;48.922;2.414;2023-04-15T06:20:59;6.22;;;5.57;;
77099;SDS011;66602;48.922;2.414;2023-04-15T06:23:25;5.30;;;5.00;;
77099;SDS011;66602;48.922;2.414;2023-04-15T06:25:54;11.00;;;5.53;;
77099;SDS011;66602;48.922;2.414;2023-04-15T06:28:20;5.95;;;5.45;;
77099;SDS011;66602;48.922;2.414;2023-04-15T06:30:45;4.57;;;4.10;;
77099;SDS011;66602;48.922;2.414;2023-04-15T06:33:12;3.85;;;3.65;;
77099;SDS011;66602;48.922;2.414;2023-04-15T06:35:37;2.90;;;2.80;;
77099;SDS011;66602;48.922;2.414;2023-04-15T06:38:03;3.13;;;3.00;;
77099;SDS011;66602;48.922;2.414;2023-04-15T06:40:29;3.00;;;2.90;;
77099;SDS011;66602;48.922;2.414;2023-04-15T06:42:55;2.58;;;2.47;;
77099;SDS011;66602;48.922;2.414;2023-04-15T06:45:22;3.58;;;3.28;;
77099;SDS011;66602;48.922;2.414;2023-04-15T06:47:48;3.13;;;3.00;;
77099;SDS011;66602;48.922;2.414;2023-04-15T06:50:13;2.85;;;2.75;;
77099;SDS011;66602;48.922;2.414;2023-04-15T06:52:39;3.22;;;3.03;;
77099;SDS011;66602;48.922;2.414;2023-04-15T06:55:05;3.17;;;2.97;;
77099;SDS011;66602;48.922;2.414;2023-04-15T06:57:31;2.88;;;2.67;;
77099;SDS011;66602;48.922;2.414;2023-04-15T06:59:57;3.20;;;3.10;;
77099;SDS011;66602;48.922;2.414;2023-04-15T07:02:24;2.75;;;2.65;;
77099;SDS011;66602;48.922;2.414;2023-04-15T07:04:52;2.90;;;2.80;;
77099;SDS011;66602;48.922;2.414;2023-04-15T07:07:18;3.03;;;2.92;;
77099;SDS011;66602;48.922;2.414;2023-04-15T07:09:43;2.92;;;2.72;;
77099;SDS011;66602;48.922;2.414;2023-04-15T07:12:09;4.13;;;2.92;;
77099;SDS011;66602;48.922;2.414;2023-04-15T07:14:34;3.40;;;3.20;;
77099;SDS011;66602;48.922;2.414;2023-04-15T07:17:00;3.78;;;3.50;;
77099;SDS011;66602;48.922;2.414;2023-04-15T07:19:26;3.15;;;2.95;;
77099;SDS011;66602;48.922;2.414;2023-04-15T07:21:51;3.50;;;3.30;;
77099;SDS011;66602;48.922;2.414;2023-04-15T07:24:19;2.70;;;2.60;;
77099;SDS011;66602;48.922;2.414;2023-04-15T07:26:47;3.35;;;2.95;;
77099;SDS011;66602;48.922;2.414;2023-04-15T07:29:12;3.08;;;2.97;;
77099;SDS011;66602;48.922;2.414;2023-04-15T07:31:39;2.20;;;2.10;;
77099;SDS011;66602;48.922;2.414;2023-04-15T07:34:06;2.08;;;2.00;;
77099;SDS011;66602;48.922;2.414;2023-04-15T07:36:34;2.15;;;2.05;;
77099;SDS011;66602;48.922;2.414;2023-04-15T07:39:00;2.08;;;2.00;;
77099;SDS011;66602;48.922;2.414;2023-04-15T07:41:28;1.45;;;1.45;;
77099;SDS011;66602;48.922;2.414;2023-04-15T07:43:54;2.00;;;1.60;;
77099;SDS011;66602;48.922;2.414;2023-04-15T07:46:19;1.70;;;1.70;;
77099;SDS011;66602;48.922;2.414;2023-04-15T07:48:45;1.85;;;1.75;;
77099;SDS011;66602;48.922;2.414;2023-04-15T07:51:11;1.90;;;1.88;;
77099;SDS011;66602;48.922;2.414;2023-04-15T07:53:37;2.22;;;2.13;;
77099;SDS011;66602;48.922;2.414;2023-04-15T07:56:02;1.85;;;1.75;;
77099;SDS011;66602;48.922;2.414;2023-04-15T07:58:30;2.67;;;2.58;;
77099;SDS011;66602;48.922;2.414;2023-04-15T08:00:55;3.20;;;3.10;;
77099;SDS011;66602;48.922;2.414;2023-04-15T08:03:21;3.70;;;3.50;;
77099;SDS011;66602;48.922;2.414;2023-04-15T08:05:47;2.47;;;2.30;;
77099;SDS011;66602;48.922;2.414;2023-04-15T08:08:13;2.55;;;2.45;;
77099;SDS011;66602;48.922;2.414;2023-04-15T08:10:38;2.58;;;2.47;;
77099;SDS011;66602;48.922;2.414;2023-04-15T08:13:04;3.20;;;3.10;;
77099;SDS011;66602;48.922;2.414;2023-04-15T08:15:31;2.22;;;2.13;;
77099;SDS011;66602;48.922;2.414;2023-04-15T08:17:57;2.35;;;2.25;;
77099;SDS011;66602;48.922;2.414;2023-04-15T08:20:24;2.45;;;2.35;;
77099;SDS011;66602;48.922;2.414;2023-04-15T08:22:50;2.13;;;2.03;;
77099;SDS011;66602;48.922;2.414;2023-04-15T08:25:16;2.00;;;1.90;;
77099;SDS011;66602;48.922;2.414;2023-04-15T08:27:43;1.98;;;1.88;;
77099;SDS011;66602;48.922;2.414;2023-04-15T08:30:09;2.25;;;2.15;;
77099;SDS011;66602;48.922;2.414;2023-04-15T08:32:36;3.10;;;2.05;;
77099;SDS011;66602;48.922;2.414;2023-04-15T08:35:02;4.55;;;1.92;;
77099;SDS011;66602;48.922;2.414;2023-04-15T08:37:27;1.80;;;1.70;;
77099;SDS011;66602;48.922;2.414;2023-04-15T08:39:53;1.77;;;1.67;;
77099;SDS011;66602;48.922;2.414;2023-04-15T08:42:21;2.00;;;1.90;;
77099;SDS011;66602;48.922;2.414;2023-04-15T08:44:49;2.50;;;2.30;;
77099;SDS011;66602;48.922;2.414;2023-04-15T08:47:15;1.77;;;1.55;;
77099;SDS011;66602;48.922;2.414;2023-04-15T08:49:44;1.85;;;1.85;;
77099;SDS011;66602;48.922;2.414;2023-04-15T08:52:17;3.22;;;2.10;;
77099;SDS011;66602;48.922;2.414;2023-04-15T08:54:43;3.50;;;1.63;;
77099;SDS011;66602;48.922;2.414;2023-04-15T08:57:09;1.85;;;1.75;;
77099;SDS011;66602;48.922;2.414;2023-04-15T08:59:35;2.70;;;2.50;;
77099;SDS011;66602;48.922;2.414;2023-04-15T09:02:02;1.98;;;1.90;;
77099;SDS011;66602;48.922;2.414;2023-04-15T09:04:28;2.17;;;1.85;;
77099;SDS011;66602;48.922;2.414;2023-04-15T09:06:53;2.40;;;2.20;;
77099;SDS011;66602;48.922;2.414;2023-04-15T09:09:19;2.63;;;2.10;;
77099;SDS011;66602;48.922;2.414;2023-04-15T09:11:44;1.98;;;1.88;;
77099;SDS011;66602;48.922;2.414;2023-04-15T09:14:10;2.40;;;2.20;;
77099;SDS011;66602;48.922;2.414;2023-04-15T09:16:55;2.63;;;2.42;;
77099;SDS011;66602;48.922;2.414;2023-04-15T09:19:25;2.72;;;2.58;;
77099;SDS011;66602;48.922;2.414;2023-04-15T09:21:56;2.60;;;2.40;;
77099;SDS011;66602;48.922;2.414;2023-04-15T09:24:23;2.10;;;2.00;;
77099;SDS011;66602;48.922;2.414;2023-04-15T09:26:53;4.30;;;2.08;;
77099;SDS011;66602;48.922;2.414;2023-04-15T09:29:23;1.67;;;1.65;;
77099;SDS011;66602;48.922;2.414;2023-04-15T09:31:49;1.90;;;1.90;;
77099;SDS011;66602;48.922;2.414;2023-04-15T09:34:15;3.80;;;1.70;;
77099;SDS011;66602;48.922;2.414;2023-04-15T09:39:14;1.90;;;1.80;;
77099;SDS011;66602;48.922;2.414;2023-04-15T09:41:40;2.22;;;2.03;;
77099;SDS011;66602;48.922;2.414;2023-04-15T09:44:05;1.55;;;1.55;;
77099;SDS011;66602;48.922;2.414;2023-04-15T09:46:41;1.65;;;1.65;;
77099;SDS011;66602;48.922;2.414;2023-04-15T09:49:10;1.60;;;1.60;;
77099;SDS011;66602;48.922;2.414;2023-04-15T09:51:37;1.90;;;1.80;;
77099;SDS011;66602;48.922;2.414;2023-04-15T09:54:11;2.13;;;2.03;;
77099;SDS011;66602;48.922;2.414;2023-04-15T09:56:37;2.70;;;2.50;;
77099;SDS011;66602;48.922;2.414;2023-04-15T09:59:09;2.35;;;2.15;;
77099;SDS011;66602;48.922;2.414;2023-04-15T10:01:35;2.65;;;2.00;;
77099;SDS011;66602;48.922;2.414;2023-04-15T10:04:02;3.40;;;2.13;;
77099;SDS011;66602;48.922;2.414;2023-04-15T10:06:28;3.75;;;2.15;;
77099;SDS011;66602;48.922;2.414;2023-04-15T10:08:54;2.05;;;1.77;;
77099;SDS011;66602;48.922;2.414;2023-04-15T10:11:21;1.70;;;1.60;;
77099;SDS011;66602;48.922;2.414;2023-04-15T10:13:49;1.83;;;1.73;;
77099;SDS011;66602;48.922;2.414;2023-04-15T10:16:16;2.10;;;2.00;;
77099;SDS011;66602;48.922;2.414;2023-04-15T10:18:52;2.78;;;1.77;;
77099;SDS011;66602;48.922;2.414;2023-04-15T10:21:19;2.00;;;1.75;;
77099;SDS011;66602;48.922;2.414;2023-04-15T10:23:47;2.03;;;1.58;;
77099;SDS011;66602;48.922;2.414;2023-04-15T10:26:14;1.48;;;1.48;;
77099;SDS011;66602;48.922;2.414;2023-04-15T10:28:41;1.80;;;1.70;;
77099;SDS011;66602;48.922;2.414;2023-04-15T10:31:08;1.40;;;1.40;;
77099;SDS011;66602;48.922;2.414;2023-04-15T10:33:36;3.10;;;1.50;;
77099;SDS011;66602;48.922;2.414;2023-04-15T10:36:03;1.67;;;1.58;;
77099;SDS011;66602;48.922;2.414;2023-04-15T10:41:25;1.63;;;1.63;;
77099;SDS011;66602;48.922;2.414;2023-04-15T10:46:22;2.22;;;2.13;;
77099;SDS011;66602;48.922;2.414;2023-04-15T10:49:11;1.90;;;1.80;;
77099;SDS011;66602;48.922;2.414;2023-04-15T10:51:42;2.15;;;2.00;;
77099;SDS011;66602;48.922;2.414;2023-04-15T10:54:13;2.00;;;2.00;;
77099;SDS011;66602;48.922;2.414;2023-04-15T10:56:40;1.92;;;1.80;;
77099;SDS011;66602;48.922;2.414;2023-04-15T10:59:08;2.58;;;1.85;;
77099;SDS011;66602;48.922;2.414;2023-04-15T11:01:50;3.20;;;3.00;;
77099;SDS011;66602;48.922;2.414;2023-04-15T11:07:59;9.35;;;5.88;;
77099;SDS011;66602;48.922;2.414;2023-04-15T11:12:42;2.17;;;1.98;;
77099;SDS011;66602;48.922;2.414;2023-04-15T11:15:26;2.13;;;2.03;;
77099;SDS011;66602;48.922;2.414;2023-04-15T11:18:09;2.88;;;2.10;;
77099;SDS011;66602;48.922;2.414;2023-04-15T11:23:11;2.13;;;2.03;;
77099;SDS011;66602;48.922;2.414;2023-04-15T11:25:37;1.80;;;1.70;;
77099;SDS011;66602;48.922;2.414;2023-04-15T11:28:03;1.45;;;1.45;;
77099;SDS011;66602;48.922;2.414;2023-04-15T11:30:30;1.77;;;1.70;;
77099;SDS011;66602;48.922;2.414;2023-04-15T11:33:01;1.33;;;1.33;;
77099;SDS011;66602;48.922;2.414;2023-04-15T11:35:31;1.40;;;1.40;;
77099;SDS011;66602;48.922;2.414;2023-04-15T11:37:56;1.60;;;1.60;;
77099;SDS011;66602;48.922;2.414;2023-04-15T11:40:23;1.80;;;1.70;;
77099;SDS011;66602;48.922;2.414;2023-04-15T11:43:06;1.58;;;1.58;;
77099;SDS011;66602;48.922;2.414;2023-04-15T11:45:37;2.95;;;2.00;;
77099;SDS011;66602;48.922;2.414;2023-04-15T11:48:14;2.83;;;1.75;;
77099;SDS011;66602;48.922;2.414;2023-04-15T11:50:40;2.42;;;1.70;;
77099;SDS011;66602;48.922;2.414;2023-04-15T11:53:10;3.17;;;1.77;;
77099;SDS011;66602;48.922;2.414;2023-04-15T11:55:46;1.80;;;1.80;;
77099;SDS011;66602;48.922;2.414;2023-04-15T11:58:20;4.68;;;2.20;;
77099;SDS011;66602;48.922;2.414;2023-04-15T12:00:48;2.20;;;2.10;;
77099;SDS011;66602;48.922;2.414;2023-04-15T12:03:28;2.00;;;1.95;;
77099;SDS011;66602;48.922;2.414;2023-04-15T12:09:19;1.40;;;1.40;;
77099;SDS011;66602;48.922;2.414;2023-04-15T12:14:04;1.77;;;1.70;;
77099;SDS011;66602;48.922;2.414;2023-04-15T12:16:34;1.70;;;1.70;;
77099;SDS011;66602;48.922;2.414;2023-04-15T12:19:04;1.80;;;1.70;;
77099;SDS011;66602;48.922;2.414;2023-04-15T12:21:40;2.00;;;1.90;;
77099;SDS011;66602;48.922;2.414;2023-04-15T12:24:08;1.95;;;1.85;;
77099;SDS011;66602;48.922;2.414;2023-04-15T12:26:45;2.20;;;2.10;;
77099;SDS011;66602;48.922;2.414;2023-04-15T12:29:16;2.00;;;1.85;;
77099;SDS011;66602;48.922;2.414;2023-04-15T12:31:57;1.90;;;1.75;;
77099;SDS011;66602;48.922;2.414;2023-04-15T12:34:35;2.80;;;1.65;;
77099;SDS011;66602;48.922;2.414;2023-04-15T12:37:03;2.10;;;2.00;;
77099;SDS011;66602;48.922;2.414;2023-04-15T12:39:30;2.30;;;2.15;;
77099;SDS011;66602;48.922;2.414;2023-04-15T12:42:00;1.98;;;1.88;;
77099;SDS011;66602;48.922;2.414;2023-04-15T12:44:27;2.10;;;2.00;;
77099;SDS011;66602;48.922;2.414;2023-04-15T12:46:53;2.10;;;2.00;;
77099;SDS011;66602;48.922;2.414;2023-04-15T12:49:22;2.10;;;1.90;;
77099;SDS011;66602;48.922;2.414;2023-04-15T12:51:48;2.20;;;2.15;;
77099;SDS011;66602;48.922;2.414;2023-04-15T12:54:15;1.73;;;1.63;;
77099;SDS011;66602;48.922;2.414;2023-04-15T12:56:41;2.00;;;1.90;;
77099;SDS011;66602;48.922;2.414;2023-04-15T12:59:08;2.25;;;2.05;;
77099;SDS011;66602;48.922;2.414;2023-04-15T13:01:33;1.80;;;1.70;;
77099;SDS011;66602;48.922;2.414;2023-04-15T13:03:59;2.88;;;1.55;;
77099;SDS011;66602;48.922;2.414;2023-04-15T13:06:24;1.77;;;1.67;;
77099;SDS011;66602;48.922;2.414;2023-04-15T13:08:50;1.95;;;1.90;;
77099;SDS011;66602;48.922;2.414;2023-04-15T13:11:18;1.92;;;1.83;;
77099;SDS011;66602;48.922;2.414;2023-04-15T13:13:44;1.77;;;1.67;;
77099;SDS011;66602;48.922;2.414;2023-04-15T13:16:10;1.60;;;1.52;;
77099;SDS011;66602;48.922;2.414;2023-04-15T13:18:35;1.40;;;1.30;;
77099;SDS011;66602;48.922;2.414;2023-04-15T13:21:01;1.83;;;1.50;;
77099;SDS011;66602;48.922;2.414;2023-04-15T13:23:27;1.33;;;1.27;;
77099;SDS011;66602;48.922;2.414;2023-04-15T13:25:52;1.40;;;1.30;;
77099;SDS011;66602;48.922;2.414;2023-04-15T13:28:18;1.45;;;1.33;;
77099;SDS011;66602;48.922;2.414;2023-04-15T13:30:43;1.33;;;1.33;;
77099;SDS011;66602;48.922;2.414;2023-04-15T13:33:10;1.50;;;1.40;;
77099;SDS011;66602;48.922;2.414;2023-04-15T13:35:36;1.20;;;1.20;;
77099;SDS011;66602;48.922;2.414;2023-04-15T13:38:01;1.08;;;1.08;;
77099;SDS011;66602;48.922;2.414;2023-04-15T13:40:27;3.20;;;3.00;;
77099;SDS011;66602;48.922;2.414;2023-04-15T13:42:52;2.20;;;2.00;;
77099;SDS011;66602;48.922;2.414;2023-04-15T13:45:18;1.80;;;1.70;;
77099;SDS011;66602;48.922;2.414;2023-04-15T13:47:43;2.40;;;2.20;;
77099;SDS011;66602;48.922;2.414;2023-04-15T13:50:09;2.72;;;1.90;;
77099;SDS011;66602;48.922;2.414;2023-04-15T13:52:35;2.50;;;2.30;;
77099;SDS011;66602;48.922;2.414;2023-04-15T13:55:01;1.30;;;1.20;;
77099;SDS011;66602;48.922;2.414;2023-04-15T13:57:30;2.45;;;2.20;;
77099;SDS011;66602;48.922;2.414;2023-04-15T13:59:56;3.28;;;1.70;;
77099;SDS011;66602;48.922;2.414;2023-04-15T14:02:22;2.63;;;1.00;;
77099;SDS011;66602;48.922;2.414;2023-04-15T14:04:47;2.45;;;2.25;;
77099;SDS011;66602;48.922;2.414;2023-04-15T14:07:13;1.52;;;1.42;;
77099;SDS011;66602;48.922;2.414;2023-04-15T14:09:38;1.58;;;1.30;;
77099;SDS011;66602;48.922;2.414;2023-04-15T14:12:04;1.65;;;1.27;;
77099;SDS011;66602;48.922;2.414;2023-04-15T14:14:29;1.55;;;1.55;;
77099;SDS011;66602;48.922;2.414;2023-04-15T14:16:55;2.10;;;1.63;;
77099;SDS011;66602;48.922;2.414;2023-04-15T14:19:21;1.60;;;1.27;;
77099;SDS011;66602;48.922;2.414;2023-04-15T14:21:47;1.73;;;1.63;;
77099;SDS011;66602;48.922;2.414;2023-04-15T14:24:13;3.70;;;1.60;;
77099;SDS011;66602;48.922;2.414;2023-04-15T14:26:38;1.10;;;1.10;;
77099;SDS011;66602;48.922;2.414;2023-04-15T14:29:04;1.85;;;1.75;;
77099;SDS011;66602;48.922;2.414;2023-04-15T14:31:29;2.28;;;1.73;;
77099;SDS011;66602;48.922;2.414;2023-04-15T14:33:55;2.53;;;2.25;;
77099;SDS011;66602;48.922;2.414;2023-04-15T14:36:20;2.00;;;1.50;;
77099;SDS011;66602;48.922;2.414;2023-04-15T14:38:45;2.08;;;1.98;;
77099;SDS011;66602;48.922;2.414;2023-04-15T14:41:11;1.70;;;1.65;;
77099;SDS011;66602;48.922;2.414;2023-04-15T14:43:36;2.25;;;2.00;;
77099;SDS011;66602;48.922;2.414;2023-04-15T14:46:02;3.28;;;2.03;;
77099;SDS011;66602;48.922;2.414;2023-04-15T14:48:28;2.03;;;1.40;;
77099;SDS011;66602;48.922;2.414;2023-04-15T14:50:55;1.73;;;1.63;;
77099;SDS011;66602;48.922;2.414;2023-04-15T14:53:21;1.88;;;1.77;;
77099;SDS011;66602;48.922;2.414;2023-04-15T14:55:48;2.15;;;1.60;;
77099;SDS011;66602;48.922;2.414;2023-04-15T14:58:13;2.65;;;1.98;;
77099;SDS011;66602;48.922;2.414;2023-04-15T15:00:39;4.85;;;1.75;;
77099;SDS011;66602;48.922;2.414;2023-04-15T15:03:09;2.63;;;1.60;;
77099;SDS011;66602;48.922;2.414;2023-04-15T15:05:42;2.75;;;1.85;;